Date,TemperatureHighF,TemperatureAvgF,TemperatureLowF,DewpointHighF,DewpointAvgF,DewpointLowF,HumidityHigh,HumidityAvg,HumidityLow,PressureMaxIn,PressureMinIn,WindSpeedMaxMPH,WindSpeedAvgMPH,GustSpeedMaxMPH,PrecipitationSumIn
2014-1-1,69.1,56.4,46.8,59.8,52.2,40.6,99,86,66,30.26,29.99,5,1,11,0.00
2014-1-2,58.6,47.1,36.6,58.3,33.1,20.0,99,61,28,30.43,30.04,9,4,21,0.00
2014-1-3,62.5,43.4,29.7,38.4,27.6,22.0,96,59,21,30.45,30.17,6,2,13,0.00
2014-1-4,69.4,57.6,39.6,60.7,51.9,38.5,99,83,63,30.17,29.83,7,2,17,0.00
2014-1-5,64.4,51.3,36.5,63.0,41.0,19.5,98,70,38,30.35,29.78,10,5,22,0.00
2014-1-6,36.6,31.6,26.4,19.9,8.2,-1.3,65,40,20,30.68,30.36,11,5,21,0.00
2014-1-7,52.7,33.6,21.7,21.9,12.4,7.1,69,45,21,30.64,30.45,6,2,13,0.00
2014-1-10,68.2,67.2,65.8,67.7,66.9,65.6,99,99,98,29.82,29.80,8,5,13,0.00
2014-1-11,77.3,63.0,45.2,65.2,46.0,23.0,99,63,16,30.11,29.81,11,3,17,0.00
2014-1-12,78.3,58.7,38.6,61.5,46.9,34.1,99,71,24,30.11,29.90,8,2,15,0.00
2014-1-13,72.3,62.9,44.2,66.2,45.7,14.9,99,62,12,30.11,29.79,8,3,17,0.00
2014-1-14,75.2,55.1,35.8,43.6,33.6,17.4,91,52,13,30.20,30.01,7,2,14,0.00
2014-1-15,63.5,51.6,39.8,39.4,27.7,17.7,66,43,18,30.41,30.18,7,2,12,0.00
2014-1-16,73.2,55.0,37.5,48.4,41.4,29.1,97,64,33,30.18,30.03,11,2,19,0.00
2014-1-17,67.9,54.0,40.4,46.0,24.7,14.5,83,38,14,30.31,30.13,9,2,17,0.00
2014-1-18,72.7,53.7,35.6,50.9,39.6,24.2,94,63,24,30.25,30.08,6,1,14,0.00
2014-1-19,75.1,58.0,46.6,53.6,38.5,17.0,99,60,12,30.29,30.11,7,2,11,0.00
2014-1-20,79.9,60.4,43.6,62.1,53.5,39.5,99,81,44,30.11,29.85,9,3,18,0.00
2014-1-21,65.1,55.1,38.6,59.0,25.7,14.9,99,36,17,30.32,29.99,12,4,23,0.00
2014-1-22,72.9,52.7,34.1,51.1,33.6,23.4,89,53,18,30.23,30.01,7,2,14,0.00
2014-1-23,59.6,49.8,35.6,56.9,45.9,-99.9,99,93,86,30.48,30.03,17,-20,25,0.02
2014-1-24,36.5,32.7,28.8,29.7,25.8,22.9,99,76,63,30.67,30.37,7,1,12,0.00
2014-1-25,64.1,44.5,28.7,41.6,34.0,25.8,91,70,36,30.37,30.01,7,2,13,0.00
2014-1-26,72.9,58.7,45.9,60.9,49.2,41.1,99,74,40,30.02,29.72,9,3,18,0.00
2014-1-27,62.6,56.5,44.6,60.9,45.7,22.4,99,70,41,30.14,29.75,11,4,21,0.00
2014-1-28,44.4,35.5,31.2,30.1,22.9,17.6,90,61,39,30.42,30.11,11,5,19,0.00
2014-1-29,50.9,36.4,28.9,25.8,16.3,6.5,74,47,20,30.50,30.30,7,2,12,0.11
2014-1-30,61.5,48.2,27.5,54.6,40.1,16.3,94,74,60,30.30,29.93,5,2,15,0.00
2014-1-31,75.0,63.2,54.2,64.4,59.4,53.3,99,89,66,29.97,29.84,7,2,15,0.00